Time;durP1;ratioP1;P1;durP2;ratioP2;P2;SDS_P1;SDS_P2;PMS_P1;PMS_P2;Temp;Humidity;BMP_temperature;BMP_pressure;BME280_temperature;BME280_humidity;BME280_pressure;Samples;Min_cycle;Max_cycle;Signal;HPM_P1;HPM_P2
2023/07/06 00:00:51;;;;;;;28.75;18.35;;;28.50;99.90;;;;;;4862325;29;20060;-45
2023/07/06 00:03:17;;;;;;;27.48;16.40;;;28.50;99.90;;;;;;4862302;29;20406;-45
2023/07/06 00:05:46;;;;;;;24.02;16.35;;;28.50;99.90;;;;;;4862205;29;20025;-45
2023/07/06 00:08:13;;;;;;;27.95;16.90;;;28.50;99.90;;;;;;4862072;29;20028;-45
2023/07/06 00:10:39;;;;;;;24.48;16.17;;;28.50;99.90;;;;;;4862034;29;20037;-44
2023/07/06 00:13:09;;;;;;;24.48;15.73;;;28.50;99.90;;;;;;4861966;29;20061;-45
2023/07/06 00:15:35;;;;;;;21.10;14.95;;;28.50;99.90;;;;;;4861969;29;20033;-45
2023/07/06 00:18:05;;;;;;;27.08;17.08;;;28.40;99.90;;;;;;4862020;29;20391;-45
2023/07/06 00:20:32;;;;;;;23.17;15.05;;;28.50;99.90;;;;;;4861783;29;20034;-46
2023/07/06 00:22:59;;;;;;;26.08;13.50;;;28.50;99.90;;;;;;4861999;29;20518;-45
2023/07/06 00:25:25;;;;;;;19.92;13.93;;;28.40;99.90;;;;;;4844352;29;20030;-45
2023/07/06 00:27:54;;;;;;;22.88;15.00;;;28.40;99.90;;;;;;4860840;29;20026;-44
2023/07/06 00:30:30;;;;;;;20.15;13.85;;;28.40;99.90;;;;;;4861100;29;20098;-45
2023/07/06 00:32:59;;;;;;;28.65;15.48;;;28.40;99.90;;;;;;4861122;29;20041;-44
2023/07/06 00:35:25;;;;;;;29.23;14.23;;;28.40;99.90;;;;;;4861920;29;20104;-45
2023/07/06 00:37:51;;;;;;;19.38;12.48;;;28.40;99.90;;;;;;4861242;29;20108;-45
2023/07/06 00:40:17;;;;;;;18.30;13.48;;;28.40;99.90;;;;;;4862052;29;20487;-44
2023/07/06 00:42:44;;;;;;;19.25;12.93;;;28.40;99.90;;;;;;4845238;29;20037;-44
2023/07/06 00:45:10;;;;;;;23.85;12.48;;;28.40;99.90;;;;;;4861785;29;20109;-44
2023/07/06 00:47:42;;;;;;;23.70;14.73;;;28.40;99.90;;;;;;4861694;29;20103;-44
2023/07/06 00:50:16;;;;;;;23.30;15.05;;;28.40;99.90;;;;;;4861793;29;20030;-44
2023/07/06 00:52:48;;;;;;;22.55;14.68;;;28.40;99.90;;;;;;4861727;29;20055;-45
2023/07/06 00:55:16;;;;;;;22.30;15.05;;;28.40;99.90;;;;;;4861445;29;20481;-44
2023/07/06 00:57:46;;;;;;;24.52;15.50;;;28.40;99.90;;;;;;4861542;29;20064;-44
2023/07/06 01:02:41;;;;;;;21.17;13.50;;;28.40;99.90;;;;;;4859916;29;20054;-50
2023/07/06 01:05:11;;;;;;;20.13;11.98;;;28.40;99.90;;;;;;4861480;29;20041;-49
2023/07/06 01:07:40;;;;;;;16.83;12.63;;;28.40;99.90;;;;;;4861360;29;20032;-50
2023/07/06 01:10:08;;;;;;;21.02;12.98;;;28.40;99.90;;;;;;4860071;29;20033;-50
2023/07/06 01:12:34;;;;;;;22.05;13.05;;;28.40;99.90;;;;;;4861311;29;20124;-55
2023/07/06 01:15:00;;;;;;;17.20;12.75;;;28.40;99.90;;;;;;4861395;29;20117;-50
2023/07/06 01:17:40;;;;;;;18.08;11.75;;;28.30;99.90;;;;;;4861278;29;20390;-50
2023/07/06 01:20:21;;;;;;;16.40;11.27;;;28.40;99.90;;;;;;4861138;29;20026;-50
2023/07/06 01:23:05;;;;;;;18.38;11.60;;;28.40;99.90;;;;;;4860095;29;20112;-50
2023/07/06 01:25:58;;;;;;;21.50;11.05;;;28.40;99.90;;;;;;4861401;29;20021;-50
2023/07/06 01:28:53;;;;;;;15.23;10.18;;;28.30;99.90;;;;;;4860911;29;20086;-49
2023/07/06 01:31:52;;;;;;;16.10;10.98;;;28.30;99.90;;;;;;4861023;29;20041;-50
2023/07/06 01:34:57;;;;;;;15.52;10.70;;;28.30;99.90;;;;;;4857674;29;20512;-50
2023/07/06 01:37:29;;;;;;;15.13;11.30;;;28.30;99.90;;;;;;4861047;29;20049;-50
2023/07/06 01:39:59;;;;;;;14.43;10.07;;;28.30;99.90;;;;;;4860783;29;20166;-50
2023/07/06 01:42:31;;;;;;;18.77;10.40;;;28.30;99.90;;;;;;4859521;29;20029;-50
2023/07/06 01:45:08;;;;;;;17.77;11.00;;;28.30;99.90;;;;;;4860626;29;20378;-50
2023/07/06 01:47:40;;;;;;;21.02;10.18;;;28.30;99.90;;;;;;4860698;29;20066;-50
2023/07/06 01:50:09;;;;;;;14.73;10.82;;;28.30;99.90;;;;;;4859235;29;20029;-49
2023/07/06 01:52:43;;;;;;;16.58;9.98;;;28.30;99.90;;;;;;4860528;29;20043;-50
2023/07/06 01:55:20;;;;;;;18.10;9.85;;;28.30;99.90;;;;;;4860591;29;20041;-50
2023/07/06 01:58:04;;;;;;;;;;;28.30;99.90;;;;;;4860826;29;20037;-50
2023/07/06 02:00:31;;;;;;;17.23;10.20;;;28.30;99.90;;;;;;4874415;23;19920;-44
2023/07/06 02:02:59;;;;;;;16.63;9.88;;;28.20;99.90;;;;;;4879011;29;20037;-48
2023/07/06 02:05:26;;;;;;;14.93;9.32;;;28.30;99.90;;;;;;4878975;29;20036;-44
2023/07/06 02:07:52;;;;;;;;;;;28.30;99.90;;;;;;4879590;29;20034;-44
2023/07/06 02:10:19;;;;;;;16.25;9.70;;;28.20;99.90;;;;;;4878866;29;20284;-44
2023/07/06 02:12:47;;;;;;;17.85;9.98;;;28.30;99.90;;;;;;4878770;29;20555;-44
2023/07/06 02:15:19;;;;;;;18.67;11.00;;;28.30;99.90;;;;;;4878819;29;20488;-44
2023/07/06 02:17:47;;;;;;;15.02;9.13;;;28.30;99.90;;;;;;4862059;29;20029;-44
2023/07/06 02:20:16;;;;;;;16.58;9.35;;;28.30;99.90;;;;;;4862078;29;20524;-44
2023/07/06 02:22:42;;;;;;;15.60;9.73;;;28.20;99.90;;;;;;4878622;29;20081;-44
2023/07/06 02:25:08;;;;;;;16.85;10.68;;;28.20;99.90;;;;;;4878522;29;20029;-45
2023/07/06 02:27:34;;;;;;;16.55;10.50;;;28.20;99.90;;;;;;4878480;29;20088;-44
2023/07/06 02:30:00;;;;;;;17.15;11.90;;;28.20;99.90;;;;;;4878594;29;20481;-44
2023/07/06 02:32:27;;;;;;;18.40;10.88;;;28.20;99.90;;;;;;4878488;29;20041;-44
2023/07/06 02:34:54;;;;;;;17.52;11.15;;;28.20;99.90;;;;;;4878807;29;20096;-44
2023/07/06 02:37:20;;;;;;;16.27;11.43;;;28.30;99.90;;;;;;4878392;29;20501;-45
2023/07/06 02:39:46;;;;;;;22.38;12.73;;;28.20;99.90;;;;;;4878337;29;20029;-44
2023/07/06 02:42:14;;;;;;;19.65;10.90;;;28.20;99.90;;;;;;4878455;29;20037;-45
2023/07/06 02:44:40;;;;;;;17.35;10.88;;;28.20;99.90;;;;;;4878338;29;20021;-44
2023/07/06 02:47:10;;;;;;;23.52;11.95;;;28.30;99.90;;;;;;4878359;29;20029;-44
2023/07/06 02:49:36;;;;;;;17.58;11.90;;;28.20;99.90;;;;;;4868099;29;20022;-44
2023/07/06 02:52:02;;;;;;;16.35;11.15;;;28.20;99.90;;;;;;4859378;29;20478;-44
2023/07/06 02:54:28;;;;;;;17.65;10.70;;;28.20;99.90;;;;;;4875445;29;20027;-44
2023/07/06 02:56:56;;;;;;;14.98;10.60;;;28.20;99.90;;;;;;4878036;29;20486;-44
2023/07/06 02:59:21;;;;;;;;;;;28.20;99.90;;;;;;4862199;29;20017;-44
2023/07/06 03:01:48;;;;;;;20.83;12.27;;;28.20;99.90;;;;;;4893366;23;19928;-50
2023/07/06 03:04:17;;;;;;;18.83;12.02;;;28.20;99.90;;;;;;4881440;29;20044;-50
2023/07/06 03:06:45;;;;;;;23.42;10.85;;;28.20;99.90;;;;;;4881568;29;20224;-49
2023/07/06 03:09:11;;;;;;;17.65;12.27;;;28.20;99.90;;;;;;4881751;29;20091;-50
2023/07/06 03:11:38;;;;;;;18.85;13.65;;;28.20;99.90;;;;;;4864671;29;20060;-49
2023/07/06 03:14:04;;;;;;;21.92;11.82;;;28.20;99.90;;;;;;4881591;29;20065;-49
2023/07/06 03:16:39;;;;;;;22.10;11.55;;;28.20;99.90;;;;;;4881392;29;20049;-49
2023/07/06 03:19:06;;;;;;;18.65;11.60;;;28.20;99.90;;;;;;4881422;29;20029;-49
2023/07/06 03:21:33;;;;;;;20.52;12.05;;;28.20;99.90;;;;;;4881335;29;20029;-50
2023/07/06 03:23:59;;;;;;;19.75;12.80;;;28.20;99.90;;;;;;4864350;29;20057;-49
2023/07/06 03:26:24;;;;;;;23.13;13.10;;;28.20;99.90;;;;;;4881540;29;20064;-49
2023/07/06 03:28:50;;;;;;;23.17;11.85;;;28.20;99.90;;;;;;4881295;29;20036;-49
2023/07/06 03:31:16;;;;;;;23.15;12.52;;;28.20;99.90;;;;;;4880895;29;20048;-49
2023/07/06 03:33:42;;;;;;;24.63;13.13;;;28.20;99.90;;;;;;4881407;29;20029;-50
2023/07/06 03:36:08;;;;;;;21.05;13.43;;;28.20;99.90;;;;;;4881198;29;20033;-49
2023/07/06 03:38:36;;;;;;;23.20;12.75;;;28.20;99.90;;;;;;4880868;29;20029;-49
2023/07/06 03:41:03;;;;;;;19.85;11.60;;;28.10;99.90;;;;;;4881116;29;20021;-49
2023/07/06 03:43:30;;;;;;;17.88;11.63;;;28.20;99.90;;;;;;4881236;29;20021;-49
2023/07/06 03:45:56;;;;;;;18.15;11.38;;;28.20;99.90;;;;;;4881153;29;20033;-49
2023/07/06 03:48:22;;;;;;;17.58;10.55;;;28.20;99.90;;;;;;4880863;29;20029;-49
2023/07/06 03:50:52;;;;;;;16.63;11.75;;;28.20;99.90;;;;;;4880873;29;20040;-50
2023/07/06 03:53:21;;;;;;;16.15;11.05;;;28.20;99.90;;;;;;4880636;29;20029;-50
2023/07/06 03:55:51;;;;;;;17.25;12.45;;;28.10;99.90;;;;;;4880753;29;20405;-49
2023/07/06 03:58:20;;;;;;;17.35;11.82;;;28.10;99.90;;;;;;4880568;29;20081;-49
2023/07/06 04:00:47;;;;;;;18.60;12.68;;;28.10;99.90;;;;;;4880982;29;20045;-50
2023/07/06 04:03:13;;;;;;;26.35;12.88;;;28.10;99.90;;;;;;4864016;29;20021;-49
2023/07/06 04:05:43;;;;;;;22.13;12.77;;;28.10;99.90;;;;;;4880432;29;20058;-49
2023/07/06 04:08:12;;;;;;;22.42;14.15;;;28.10;99.90;;;;;;4880613;29;20060;-50
2023/07/06 04:10:40;;;;;;;20.55;12.10;;;28.10;99.90;;;;;;4879922;29;20032;-49
2023/07/06 04:13:08;;;;;;;21.08;12.15;;;28.10;99.90;;;;;;4879754;29;20035;-49
2023/07/06 04:15:34;;;;;;;23.10;15.02;;;28.10;99.90;;;;;;4880708;29;20089;-50
2023/07/06 04:18:01;;;;;;;16.58;12.80;;;28.00;99.90;;;;;;4880369;29;20446;-49
2023/07/06 04:20:29;;;;;;;18.45;13.65;;;28.00;99.90;;;;;;4880689;29;20057;-49
2023/07/06 04:22:57;;;;;;;17.67;12.60;;;28.00;99.90;;;;;;4863733;29;20029;-49
2023/07/06 04:25:29;;;;;;;18.38;13.32;;;28.00;99.90;;;;;;4880332;29;20025;-51
2023/07/06 04:27:56;;;;;;;21.13;14.75;;;28.00;99.90;;;;;;4880264;29;20029;-50
2023/07/06 04:30:22;;;;;;;19.23;12.90;;;28.00;99.90;;;;;;4867115;29;20125;-49
2023/07/06 04:32:49;;;;;;;20.30;14.13;;;28.00;99.90;;;;;;4868605;29;20072;-50
2023/07/06 04:35:18;;;;;;;20.27;13.35;;;28.00;99.90;;;;;;4880143;29;20021;-49
2023/07/06 04:37:45;;;;;;;14.77;11.75;;;28.00;99.90;;;;;;4880170;29;20041;-50
2023/07/06 04:40:12;;;;;;;;;;;28.00;99.90;;;;;;4869396;29;20033;-47
2023/07/06 04:42:40;;;;;;;19.25;13.05;;;27.90;99.90;;;;;;4862276;29;19918;-48
2023/07/06 04:45:09;;;;;;;21.55;14.52;;;28.00;99.90;;;;;;4873329;29;20041;-50
2023/07/06 04:47:38;;;;;;;20.63;15.23;;;27.90;99.90;;;;;;4877698;29;20036;-50
2023/07/06 04:50:06;;;;;;;19.00;13.75;;;27.90;99.90;;;;;;4861428;29;20034;-49
2023/07/06 04:52:33;;;;;;;20.98;14.68;;;27.90;99.90;;;;;;4861302;29;20496;-49
2023/07/06 04:54:59;;;;;;;23.52;15.98;;;27.90;99.90;;;;;;4861519;29;20026;-49
2023/07/06 04:57:25;;;;;;;19.05;14.35;;;27.90;99.90;;;;;;4862448;29;20509;-49
2023/07/06 04:59:51;;;;;;;21.70;15.18;;;27.90;99.90;;;;;;4872289;29;20038;-49
2023/07/06 05:02:17;;;;;;;23.48;14.52;;;27.90;99.90;;;;;;4874103;29;20059;-49
2023/07/06 05:04:43;;;;;;;25.90;16.45;;;27.90;99.90;;;;;;4879638;29;20104;-49
2023/07/06 05:07:11;;;;;;;22.02;15.95;;;27.80;99.90;;;;;;4879510;29;20104;-49
2023/07/06 05:09:40;;;;;;;18.30;15.38;;;27.80;99.90;;;;;;4879191;29;20049;-49
2023/07/06 05:12:07;;;;;;;27.73;16.83;;;27.80;99.90;;;;;;4879204;29;20039;-49
2023/07/06 05:14:34;;;;;;;20.15;15.20;;;27.70;99.90;;;;;;4879482;29;20557;-50
2023/07/06 05:17:00;;;;;;;20.93;14.63;;;27.60;99.90;;;;;;4879407;29;20024;-50
2023/07/06 05:19:27;;;;;;;17.35;13.98;;;27.60;99.90;;;;;;4879156;29;20038;-49
2023/07/06 05:21:55;;;;;;;20.88;15.23;;;27.60;99.90;;;;;;4879292;29;20116;-49
2023/07/06 05:24:21;;;;;;;21.70;15.10;;;27.60;99.90;;;;;;4878748;29;20028;-49
2023/07/06 05:26:47;;;;;;;21.77;16.65;;;27.50;99.90;;;;;;4879131;29;20386;-49
2023/07/06 05:29:13;;;;;;;22.67;16.40;;;27.50;99.90;;;;;;4879073;29;20029;-49
2023/07/06 05:31:38;;;;;;;21.88;15.13;;;27.50;99.90;;;;;;4879066;29;20048;-49
2023/07/06 05:34:04;;;;;;;25.40;15.93;;;27.40;99.90;;;;;;4879166;29;20081;-49
2023/07/06 05:36:30;;;;;;;22.85;15.60;;;27.40;99.90;;;;;;4879093;29;20088;-49
2023/07/06 05:38:55;;;;;;;25.17;16.48;;;27.40;99.90;;;;;;4878975;29;20068;-49
2023/07/06 05:41:22;;;;;;;26.10;16.00;;;27.30;99.90;;;;;;4846620;29;20029;-49
2023/07/06 05:43:47;;;;;;;22.95;15.65;;;27.40;99.90;;;;;;4878863;29;20032;-49
2023/07/06 05:46:13;;;;;;;17.00;13.18;;;27.30;99.90;;;;;;4878819;29;20028;-49
2023/07/06 05:48:39;;;;;;;18.13;13.10;;;27.30;99.90;;;;;;4878817;29;20029;-49
2023/07/06 05:51:05;;;;;;;19.95;13.50;;;27.30;99.90;;;;;;4878766;29;20119;-49
2023/07/06 05:53:30;;;;;;;23.42;13.98;;;27.20;99.90;;;;;;4878787;29;20427;-49
2023/07/06 05:55:56;;;;;;;21.02;14.05;;;27.20;99.90;;;;;;4861570;29;20146;-49
2023/07/06 05:58:22;;;;;;;17.92;12.63;;;27.20;99.90;;;;;;4861854;29;20430;-49
2023/07/06 06:00:47;;;;;;;20.73;13.25;;;27.20;99.90;;;;;;4878170;29;20052;-49
2023/07/06 06:03:13;;;;;;;18.63;14.48;;;27.20;99.90;;;;;;4861694;29;20041;-49
2023/07/06 06:05:39;;;;;;;19.05;12.43;;;27.20;99.90;;;;;;4878357;29;20033;-49
2023/07/06 06:08:06;;;;;;;22.45;13.88;;;27.30;99.90;;;;;;4878661;29;20482;-49
2023/07/06 06:10:33;;;;;;;22.70;13.25;;;27.20;99.90;;;;;;4878520;29;20123;-49
2023/07/06 06:12:59;;;;;;;24.73;13.13;;;27.20;99.90;;;;;;4878289;29;20509;-49
2023/07/06 06:15:27;;;;;;;23.23;13.30;;;27.20;99.90;;;;;;4861334;29;20037;-49
2023/07/06 06:17:52;;;;;;;18.13;12.23;;;27.20;99.90;;;;;;4878396;29;20029;-48
2023/07/06 06:20:19;;;;;;;19.98;12.73;;;27.30;99.90;;;;;;4878340;29;20121;-49
2023/07/06 06:22:45;;;;;;;22.13;13.13;;;27.30;99.90;;;;;;4878196;29;20112;-48
2023/07/06 06:25:11;;;;;;;17.27;11.73;;;27.30;99.90;;;;;;4878220;29;20419;-47
2023/07/06 06:27:36;;;;;;;16.55;12.23;;;27.30;99.90;;;;;;4878168;29;20021;-47
2023/07/06 06:30:05;;;;;;;16.40;11.82;;;27.30;99.90;;;;;;4878112;29;20021;-50
2023/07/06 06:32:33;;;;;;;15.32;12.07;;;27.30;99.90;;;;;;4861682;29;20037;-49
2023/07/06 06:34:59;;;;;;;20.02;12.30;;;27.30;99.90;;;;;;4877305;29;20044;-49
2023/07/06 06:37:27;;;;;;;20.75;11.98;;;27.30;99.90;;;;;;4878076;29;20510;-48
2023/07/06 06:39:53;;;;;;;15.60;10.65;;;27.30;99.90;;;;;;4877955;29;20021;-49
2023/07/06 06:42:19;;;;;;;20.42;12.15;;;27.40;99.90;;;;;;4878118;29;20028;-48
2023/07/06 06:44:45;;;;;;;17.25;11.60;;;27.40;99.90;;;;;;4878072;29;20080;-49
2023/07/06 06:47:10;;;;;;;18.35;11.00;;;27.40;99.90;;;;;;4877906;29;20482;-48
2023/07/06 06:49:36;;;;;;;16.73;10.77;;;27.40;99.90;;;;;;4878319;29;20029;-48
2023/07/06 06:52:04;;;;;;;17.55;11.10;;;27.40;99.90;;;;;;4877815;29;20041;-48
2023/07/06 06:54:30;;;;;;;14.43;10.98;;;27.40;99.90;;;;;;4877771;29;20022;-49
2023/07/06 06:56:56;;;;;;;16.80;11.00;;;27.40;99.90;;;;;;4878163;29;20038;-48
2023/07/06 06:59:22;;;;;;;18.25;10.45;;;27.40;99.90;;;;;;4877738;29;20096;-48
2023/07/06 07:01:50;;;;;;;13.88;10.13;;;27.40;99.90;;;;;;4877783;29;20184;-48
2023/07/06 07:04:16;;;;;;;20.45;11.23;;;27.50;99.90;;;;;;4877691;29;20024;-48
2023/07/06 07:06:42;;;;;;;16.13;9.85;;;27.50;99.90;;;;;;4877907;29;20112;-50
2023/07/06 07:09:10;;;;;;;18.92;10.27;;;27.50;99.90;;;;;;4878046;29;20113;-49
2023/07/06 07:11:36;;;;;;;16.55;11.02;;;27.50;99.90;;;;;;4877820;29;20048;-48
2023/07/06 07:14:02;;;;;;;14.73;10.50;;;27.50;99.90;;;;;;4877793;29;20081;-49
2023/07/06 07:16:28;;;;;;;15.85;10.90;;;27.50;99.90;;;;;;4877628;29;20428;-49
2023/07/06 07:18:54;;;;;;;15.40;10.93;;;27.50;99.90;;;;;;4877488;29;20047;-49
2023/07/06 07:21:20;;;;;;;17.65;10.77;;;27.50;99.90;;;;;;4860982;29;20017;-49
2023/07/06 07:23:48;;;;;;;18.40;11.77;;;27.50;99.90;;;;;;4860946;29;20036;-48
2023/07/06 07:26:19;;;;;;;14.88;10.38;;;27.50;99.90;;;;;;4877713;29;20045;-50
2023/07/06 07:28:51;;;;;;;19.20;12.88;;;27.50;99.90;;;;;;4877541;29;20482;-49
2023/07/06 07:31:18;;;;;;;18.75;10.48;;;27.60;99.90;;;;;;4877403;29;20470;-49
2023/07/06 07:33:44;;;;;;;;;;;27.60;99.90;;;;;;4877885;29;20029;-49
2023/07/06 07:36:12;;;;;;;17.05;10.45;;;27.60;99.90;;;;;;4877898;29;19908;-50
2023/07/06 07:38:38;;;;;;;15.32;10.38;;;27.60;99.90;;;;;;4877835;29;20059;-50
2023/07/06 07:41:07;;;;;;;12.70;10.00;;;27.70;99.90;;;;;;4877392;29;20049;-50
2023/07/06 07:43:34;;;;;;;16.08;10.18;;;27.70;99.90;;;;;;4877469;29;20359;-50
2023/07/06 07:46:03;;;;;;;12.30;9.68;;;27.70;99.90;;;;;;4861839;29;20088;-50
2023/07/06 07:48:32;;;;;;;13.60;9.20;;;27.70;99.90;;;;;;4880875;29;20029;-50
2023/07/06 07:51:02;;;;;;;13.55;9.07;;;27.80;99.90;;;;;;4880833;29;20394;-50
2023/07/06 07:53:37;;;;;;;15.30;10.82;;;27.80;99.90;;;;;;4864115;29;20371;-49
2023/07/06 07:56:07;;;;;;;14.70;10.13;;;27.80;99.90;;;;;;4880443;29;20032;-49
2023/07/06 07:58:35;;;;;;;19.95;11.15;;;27.80;99.90;;;;;;4880648;29;20024;-48
2023/07/06 08:01:03;;;;;;;14.85;10.35;;;27.90;99.90;;;;;;4880428;29;20049;-50
2023/07/06 08:03:29;;;;;;;15.88;11.07;;;27.90;99.90;;;;;;4880610;29;20036;-49
2023/07/06 08:06:06;;;;;;;16.90;10.00;;;27.90;99.90;;;;;;4863637;29;20025;-49
2023/07/06 08:08:33;;;;;;;14.43;9.38;;;27.90;99.90;;;;;;4863614;29;20394;-50
2023/07/06 08:11:10;;;;;;;20.95;10.77;;;27.90;99.90;;;;;;4880325;29;20064;-49
2023/07/06 08:13:36;;;;;;;17.85;10.15;;;27.90;99.90;;;;;;4880448;29;20041;-49
2023/07/06 08:16:03;;;;;;;18.33;10.23;;;27.90;99.90;;;;;;4880243;29;20027;-50
2023/07/06 08:18:31;;;;;;;17.60;10.77;;;27.90;99.90;;;;;;4880212;29;20029;-49
2023/07/06 08:20:57;;;;;;;15.25;11.20;;;27.90;99.90;;;;;;4880024;29;20053;-49
2023/07/06 08:23:25;;;;;;;14.83;10.33;;;27.90;99.90;;;;;;4880146;29;20468;-49
2023/07/06 08:25:51;;;;;;;16.85;10.40;;;27.90;99.90;;;;;;4880132;29;20286;-49
2023/07/06 08:28:24;;;;;;;20.40;12.02;;;27.90;99.90;;;;;;4880144;29;20035;-51
2023/07/06 08:30:51;;;;;;;19.70;13.27;;;27.90;99.90;;;;;;4880085;29;20036;-49
2023/07/06 08:33:21;;;;;;;13.57;10.90;;;28.00;99.90;;;;;;4879982;29;20473;-48
2023/07/06 08:35:49;;;;;;;17.30;9.85;;;27.90;99.90;;;;;;4880062;29;20431;-48
2023/07/06 08:38:15;;;;;;;16.88;10.07;;;28.00;99.90;;;;;;4879902;29;20072;-49
2023/07/06 08:40:42;;;;;;;14.43;9.80;;;28.00;99.90;;;;;;4880028;29;20036;-49
2023/07/06 08:43:18;;;;;;;11.32;9.02;;;28.00;99.90;;;;;;4863043;29;20509;-49
2023/07/06 08:45:47;;;;;;;22.23;10.38;;;28.00;99.90;;;;;;4879873;29;20486;-49
2023/07/06 08:48:18;;;;;;;15.55;9.93;;;28.00;99.90;;;;;;4880039;29;20039;-49
2023/07/06 08:50:51;;;;;;;14.35;9.90;;;28.00;99.90;;;;;;4863125;29;20426;-49
2023/07/06 08:53:20;;;;;;;23.65;10.68;;;28.00;99.90;;;;;;4879782;29;20025;-50
2023/07/06 08:55:49;;;;;;;17.63;11.25;;;28.00;99.90;;;;;;4879522;29;20029;-50
2023/07/06 08:58:24;;;;;;;19.55;11.25;;;28.00;99.90;;;;;;4879156;29;20078;-49
2023/07/06 09:00:54;;;;;;;16.67;10.02;;;28.00;99.90;;;;;;4879176;29;20104;-49
2023/07/06 09:03:23;;;;;;;19.55;12.80;;;28.00;99.90;;;;;;4879448;29;20394;-49
2023/07/06 09:05:50;;;;;;;13.45;11.10;;;28.00;99.90;;;;;;4879339;29;20017;-50
2023/07/06 09:08:18;;;;;;;17.58;11.55;;;28.00;99.90;;;;;;4879509;29;20036;-50
2023/07/06 09:10:44;;;;;;;16.92;10.70;;;28.00;99.90;;;;;;4879262;29;20073;-49
2023/07/06 09:13:23;;;;;;;14.35;10.40;;;28.00;99.90;;;;;;4879472;29;20033;-50
2023/07/06 09:16:00;;;;;;;15.25;9.60;;;28.00;99.90;;;;;;4879209;29;20036;-50
2023/07/06 09:18:26;;;;;;;14.80;9.40;;;28.10;99.90;;;;;;4879012;29;20434;-51
2023/07/06 09:20:54;;;;;;;13.18;10.15;;;28.10;99.90;;;;;;4879101;29;20062;-49
2023/07/06 09:23:21;;;;;;;13.63;10.35;;;28.10;99.90;;;;;;4879157;29;20036;-49
2023/07/06 09:25:47;;;;;;;;;;;28.20;99.90;;;;;;4879415;29;20118;-50
2023/07/06 09:28:18;;;;;;;22.48;11.70;;;28.20;99.90;;;;;;4879367;29;20387;-49
2023/07/06 09:30:45;;;;;;;17.00;11.27;;;28.30;99.90;;;;;;4862736;29;20037;-50
2023/07/06 09:33:20;;;;;;;18.48;9.02;;;28.30;99.90;;;;;;4878803;29;20029;-49
2023/07/06 09:35:49;;;;;;;12.45;9.65;;;28.30;99.90;;;;;;4862209;29;20036;-49
2023/07/06 09:38:16;;;;;;;13.25;9.82;;;28.30;99.90;;;;;;4879329;29;20304;-49
2023/07/06 09:40:43;;;;;;;14.40;9.23;;;28.30;99.90;;;;;;4878772;29;20035;-49
2023/07/06 09:43:37;;;;;;;13.75;8.77;;;28.30;99.90;;;;;;4878822;29;20081;-49
2023/07/06 09:46:04;;;;;;;14.88;8.30;;;28.40;99.90;;;;;;4877051;29;20025;-49
2023/07/06 09:48:39;;;;;;;10.27;8.10;;;28.40;99.90;;;;;;4862075;29;20466;-49
2023/07/06 09:51:32;;;;;;;11.02;8.48;;;28.40;99.90;;;;;;4878510;29;20085;-50
2023/07/06 09:54:14;;;;;;;11.60;8.63;;;28.50;99.90;;;;;;4878543;29;20091;-50
2023/07/06 09:56:40;;;;;;;10.60;8.13;;;28.50;99.90;;;;;;4878611;29;20032;-49
2023/07/06 09:59:06;;;;;;;14.35;9.57;;;28.60;99.90;;;;;;4878296;29;20029;-50
2023/07/06 10:01:53;;;;;;;16.00;9.00;;;28.60;99.90;;;;;;4878593;29;20521;-50
2023/07/06 10:04:58;;;;;;;11.20;8.50;;;28.70;99.90;;;;;;4878672;29;20021;-49
2023/07/06 10:07:30;;;;;;;11.48;8.98;;;28.70;99.90;;;;;;4878273;29;20021;-49
2023/07/06 10:10:08;;;;;;;16.20;10.68;;;28.80;99.90;;;;;;4878315;29;20025;-49
2023/07/06 10:13:16;;;;;;;12.07;8.20;;;28.80;99.90;;;;;;4878308;29;20039;-49
2023/07/06 10:15:51;;;;;;;17.08;9.75;;;28.80;99.90;;;;;;4878163;29;20021;-49
2023/07/06 10:18:49;;;;;;;12.18;9.80;;;28.90;99.90;;;;;;4878546;29;20029;-50
2023/07/06 10:21:40;;;;;;;16.58;8.85;;;28.90;99.90;;;;;;4871763;29;20041;-49
2023/07/06 10:24:29;;;;;;;11.32;6.15;;;29.00;99.90;;;;;;4878161;29;20013;-49
2023/07/06 10:26:59;;;;;;;13.50;7.20;;;29.00;99.90;;;;;;4878192;29;20025;-49
2023/07/06 10:29:54;;;;;;;9.73;7.35;;;29.00;99.90;;;;;;4878204;29;20136;-49
2023/07/06 10:32:32;;;;;;;9.73;7.68;;;29.00;99.90;;;;;;4876463;29;20135;-49
2023/07/06 10:35:21;;;;;;;12.30;8.00;;;29.00;99.90;;;;;;4878256;29;20041;-49
2023/07/06 10:37:49;;;;;;;12.60;7.38;;;29.10;99.90;;;;;;4877558;29;20049;-49
2023/07/06 10:40:24;;;;;;;6.78;5.10;;;29.00;99.90;;;;;;4862002;29;20029;-50
2023/07/06 10:43:11;;;;;;;9.43;6.85;;;29.10;99.90;;;;;;4864995;29;20033;-49
2023/07/06 10:45:56;;;;;;;13.63;7.55;;;29.10;99.90;;;;;;4877806;29;20036;-49
2023/07/06 10:48:25;;;;;;;9.05;6.32;;;29.10;99.90;;;;;;4878004;29;20022;-49
2023/07/06 10:51:12;;;;;;;9.75;6.07;;;29.10;99.90;;;;;;4877991;29;20088;-50
2023/07/06 10:53:43;;;;;;;5.93;5.28;;;29.10;99.90;;;;;;4878033;29;20025;-50
2023/07/06 10:56:12;;;;;;;6.53;4.40;;;29.10;99.90;;;;;;4877900;29;20497;-49
2023/07/06 10:58:55;;;;;;;7.95;5.97;;;29.20;99.90;;;;;;4877850;29;20124;-50
2023/07/06 11:01:28;;;;;;;11.75;6.35;;;29.10;99.90;;;;;;4866397;29;20511;-49
2023/07/06 11:03:54;;;;;;;11.20;5.57;;;29.20;99.90;;;;;;4877942;29;20099;-49
2023/07/06 11:06:51;;;;;;;13.10;6.32;;;29.20;99.90;;;;;;4877590;29;20105;-49
2023/07/06 11:09:17;;;;;;;10.82;6.32;;;29.20;99.90;;;;;;4876582;29;20383;-49
2023/07/06 11:12:04;;;;;;;9.32;5.53;;;29.20;99.90;;;;;;4877651;29;20049;-49
2023/07/06 11:14:35;;;;;;;;;;;29.30;99.90;;;;;;4877873;29;20021;-49
2023/07/06 11:17:23;;;;;;;10.80;6.65;;;29.30;99.90;;;;;;4877810;29;19908;-49
2023/07/06 11:20:22;;;;;;;9.88;7.28;;;29.30;99.90;;;;;;4850699;29;20032;-50
2023/07/06 11:22:52;;;;;;;14.57;8.30;;;29.40;99.90;;;;;;4877521;29;20072;-50
2023/07/06 11:25:19;;;;;;;14.55;6.03;;;29.40;99.90;;;;;;4881270;29;20029;-49
2023/07/06 11:27:49;;;;;;;12.07;5.95;;;29.40;99.90;;;;;;4881066;29;20021;-50
2023/07/06 11:30:18;;;;;;;9.02;6.25;;;29.40;99.90;;;;;;4864303;29;20040;-50
2023/07/06 11:33:00;;;;;;;8.63;5.90;;;29.50;99.90;;;;;;4864271;29;20040;-50
2023/07/06 11:35:37;;;;;;;10.00;6.22;;;29.50;99.90;;;;;;4881027;29;20035;-50
2023/07/06 11:38:14;;;;;;;7.68;6.15;;;29.50;99.90;;;;;;4881116;29;20024;-50
2023/07/06 11:41:00;;;;;;;8.75;5.95;;;29.50;99.90;;;;;;4880943;29;20029;-50
2023/07/06 11:43:53;;;;;;;8.85;5.47;;;29.50;99.90;;;;;;4870792;29;20028;-50
2023/07/06 11:46:38;;;;;;;11.25;6.22;;;29.50;99.90;;;;;;4880837;29;20032;-50
2023/07/06 11:49:29;;;;;;;12.65;6.13;;;29.50;99.90;;;;;;4880927;29;20033;-50
2023/07/06 11:51:58;;;;;;;8.98;6.03;;;29.50;99.90;;;;;;4880835;29;20036;-50
2023/07/06 11:54:48;;;;;;;13.13;7.30;;;29.40;99.90;;;;;;4880850;29;20044;-49
2023/07/06 11:57:25;;;;;;;13.60;5.90;;;29.40;99.90;;;;;;4880883;29;20029;-49
2023/07/06 12:03:08;;;;;;;11.27;4.95;;;29.40;99.90;;;;;;4860235;29;20405;-50
2023/07/06 12:05:35;;;;;;;7.60;4.53;;;29.40;99.90;;;;;;4880603;29;20080;-49
2023/07/06 12:08:14;;;;;;;7.50;5.20;;;29.40;99.90;;;;;;4880375;29;20039;-50
2023/07/06 12:10:45;;;;;;;7.95;5.57;;;29.40;99.90;;;;;;4863883;29;20409;-50
2023/07/06 12:13:22;;;;;;;9.63;5.78;;;29.40;99.90;;;;;;4880790;29;20031;-50
2023/07/06 12:15:51;;;;;;;7.57;5.03;;;29.30;99.90;;;;;;4880224;29;20482;-50
2023/07/06 12:18:20;;;;;;;11.70;6.63;;;29.30;99.90;;;;;;4863659;29;20043;-49
2023/07/06 12:20:51;;;;;;;11.07;5.25;;;29.40;99.90;;;;;;4880067;29;20021;-50
2023/07/06 12:23:16;;;;;;;7.00;5.03;;;29.40;99.90;;;;;;4880168;29;20037;-50
2023/07/06 12:25:43;;;;;;;10.63;6.57;;;29.40;99.90;;;;;;4880420;29;20405;-51
2023/07/06 12:28:12;;;;;;;10.43;6.13;;;29.40;99.90;;;;;;4863989;29;20453;-49
2023/07/06 12:30:39;;;;;;;7.88;5.72;;;29.40;99.90;;;;;;4880242;29;20024;-49
2023/07/06 12:33:08;;;;;;;;;;;29.40;99.90;;;;;;4879390;29;20128;-50
2023/07/06 12:35:35;;;;;;;10.55;4.50;;;29.40;99.90;;;;;;4879914;29;20377;-50
2023/07/06 12:38:09;;;;;;;7.50;4.50;;;29.50;99.90;;;;;;4880066;29;20037;-50
2023/07/06 12:40:35;;;;;;;10.48;4.50;;;29.40;99.90;;;;;;4863203;29;20037;-50
2023/07/06 12:43:03;;;;;;;9.48;4.68;;;29.40;99.90;;;;;;4880074;29;20402;-50
2023/07/06 12:45:31;;;;;;;7.50;5.03;;;29.40;99.90;;;;;;4879640;29;20025;-50
2023/07/06 12:48:03;;;;;;;9.52;5.35;;;29.40;99.90;;;;;;4879789;29;20062;-50
2023/07/06 12:50:37;;;;;;;10.18;5.70;;;29.40;99.90;;;;;;4879737;29;20025;-50
2023/07/06 12:53:05;;;;;;;11.23;6.38;;;29.40;99.90;;;;;;4868277;29;20092;-50
2023/07/06 12:55:35;;;;;;;9.05;5.53;;;29.40;99.90;;;;;;4879436;29;20039;-51